Clay, Kentucky
Current Conditions -  °F | °C
As of 12:15 PM on Monday 26 Jan 2015 (Local Time) from K5M9 Reporting Station
Broken Clouds Broken Clouds  
Wind Chill: 25°   Ceiling: 10000
Heat Index: 32°   Visibility: 10mi
Dew Point: 24°   Wind: 8mph
Humidity: 70%   Direction: 300°WNW
Pressure: 29.99"   Gusts: NA
Location:  37.48°N, 87.82°W
Report Text: K5M9 261815Z AUTO 30007KT 10SM SCT021 BKN100 00/M05 A2999 RMK AO2 T00011047
Loading
Personal Weather Stations






























Interactive Weather Map New forecast layout! Learn more

10-Day Weather Forecast

Advertisements
Track Severe Weather on mobile